sensor_id;sensor_type;location;lat;lon;timestamp;P1;durP1;ratioP1;P2;durP2;ratioP2
27744;SDS011;61387;48.112;8.616;2023-09-18T00:02:04;6.20;;;3.20;;
27744;SDS011;61387;48.112;8.616;2023-09-18T00:04:30;6.33;;;3.07;;
27744;SDS011;61387;48.112;8.616;2023-09-18T00:06:56;7.10;;;3.30;;
27744;SDS011;61387;48.112;8.616;2023-09-18T00:09:22;7.13;;;3.10;;
27744;SDS011;61387;48.112;8.616;2023-09-18T00:11:48;6.10;;;3.27;;
27744;SDS011;61387;48.112;8.616;2023-09-18T00:14:14;6.40;;;3.47;;
27744;SDS011;61387;48.112;8.616;2023-09-18T00:16:40;5.97;;;3.27;;
27744;SDS011;61387;48.112;8.616;2023-09-18T00:19:06;6.10;;;3.10;;
27744;SDS011;61387;48.112;8.616;2023-09-18T00:21:33;7.90;;;3.50;;
27744;SDS011;61387;48.112;8.616;2023-09-18T00:23:59;8.07;;;3.30;;
27744;SDS011;61387;48.112;8.616;2023-09-18T00:26:25;5.80;;;3.10;;
27744;SDS011;61387;48.112;8.616;2023-09-18T00:28:51;5.47;;;2.87;;
27744;SDS011;61387;48.112;8.616;2023-09-18T00:31:18;6.07;;;3.20;;
27744;SDS011;61387;48.112;8.616;2023-09-18T00:33:44;6.57;;;3.50;;
27744;SDS011;61387;48.112;8.616;2023-09-18T00:36:10;6.60;;;2.90;;
27744;SDS011;61387;48.112;8.616;2023-09-18T00:38:36;4.50;;;2.87;;
27744;SDS011;61387;48.112;8.616;2023-09-18T00:41:02;7.57;;;3.20;;
27744;SDS011;61387;48.112;8.616;2023-09-18T00:43:28;4.70;;;2.87;;
27744;SDS011;61387;48.112;8.616;2023-09-18T00:45:54;5.47;;;2.67;;
27744;SDS011;61387;48.112;8.616;2023-09-18T00:48:20;4.57;;;3.03;;
27744;SDS011;61387;48.112;8.616;2023-09-18T00:50:46;6.50;;;3.30;;
27744;SDS011;61387;48.112;8.616;2023-09-18T00:53:13;7.37;;;3.77;;
27744;SDS011;61387;48.112;8.616;2023-09-18T00:55:42;5.87;;;3.10;;
27744;SDS011;61387;48.112;8.616;2023-09-18T00:58:07;11.30;;;3.53;;
27744;SDS011;61387;48.112;8.616;2023-09-18T01:00:33;5.57;;;3.50;;
27744;SDS011;61387;48.112;8.616;2023-09-18T01:03:00;6.60;;;3.30;;
27744;SDS011;61387;48.112;8.616;2023-09-18T01:05:27;7.67;;;2.77;;
27744;SDS011;61387;48.112;8.616;2023-09-18T01:07:52;8.20;;;3.47;;
27744;SDS011;61387;48.112;8.616;2023-09-18T01:10:18;5.83;;;2.93;;
27744;SDS011;61387;48.112;8.616;2023-09-18T01:15:33;6.27;;;3.10;;
27744;SDS011;61387;48.112;8.616;2023-09-18T01:18:06;7.60;;;3.25;;
27744;SDS011;61387;48.112;8.616;2023-09-18T01:20:33;5.87;;;2.77;;
27744;SDS011;61387;48.112;8.616;2023-09-18T01:22:59;6.53;;;3.10;;
27744;SDS011;61387;48.112;8.616;2023-09-18T01:25:24;6.30;;;3.28;;
27744;SDS011;61387;48.112;8.616;2023-09-18T01:27:50;7.97;;;3.17;;
27744;SDS011;61387;48.112;8.616;2023-09-18T01:30:16;5.97;;;3.70;;
27744;SDS011;61387;48.112;8.616;2023-09-18T01:32:42;5.53;;;3.42;;
27744;SDS011;61387;48.112;8.616;2023-09-18T01:35:08;6.80;;;3.53;;
27744;SDS011;61387;48.112;8.616;2023-09-18T01:37:35;6.90;;;3.67;;
27744;SDS011;61387;48.112;8.616;2023-09-18T01:40:04;6.10;;;3.57;;
27744;SDS011;61387;48.112;8.616;2023-09-18T01:42:34;7.37;;;3.60;;
27744;SDS011;61387;48.112;8.616;2023-09-18T01:45:00;8.35;;;3.37;;
27744;SDS011;61387;48.112;8.616;2023-09-18T01:47:26;8.20;;;3.50;;
27744;SDS011;61387;48.112;8.616;2023-09-18T01:49:52;6.40;;;3.43;;
27744;SDS011;61387;48.112;8.616;2023-09-18T01:52:18;6.13;;;3.40;;
27744;SDS011;61387;48.112;8.616;2023-09-18T01:54:43;8.17;;;3.97;;
27744;SDS011;61387;48.112;8.616;2023-09-18T01:57:10;5.43;;;3.43;;
27744;SDS011;61387;48.112;8.616;2023-09-18T01:59:37;5.23;;;3.87;;
27744;SDS011;61387;48.112;8.616;2023-09-18T02:02:03;6.93;;;3.83;;
27744;SDS011;61387;48.112;8.616;2023-09-18T02:04:31;8.97;;;3.97;;
27744;SDS011;61387;48.112;8.616;2023-09-18T02:06:57;5.87;;;3.33;;
27744;SDS011;61387;48.112;8.616;2023-09-18T02:09:23;8.23;;;3.70;;
27744;SDS011;61387;48.112;8.616;2023-09-18T02:11:49;7.90;;;3.90;;
27744;SDS011;61387;48.112;8.616;2023-09-18T02:14:15;8.57;;;3.60;;
27744;SDS011;61387;48.112;8.616;2023-09-18T02:16:42;5.60;;;3.00;;
27744;SDS011;61387;48.112;8.616;2023-09-18T02:19:11;4.60;;;2.90;;
27744;SDS011;61387;48.112;8.616;2023-09-18T02:21:45;8.03;;;3.50;;
27744;SDS011;61387;48.112;8.616;2023-09-18T02:24:11;6.85;;;3.17;;
27744;SDS011;61387;48.112;8.616;2023-09-18T02:26:37;7.33;;;3.43;;
27744;SDS011;61387;48.112;8.616;2023-09-18T02:29:05;5.87;;;3.17;;
27744;SDS011;61387;48.112;8.616;2023-09-18T02:31:35;5.47;;;2.97;;
27744;SDS011;61387;48.112;8.616;2023-09-18T02:34:01;11.30;;;3.60;;
27744;SDS011;61387;48.112;8.616;2023-09-18T02:36:27;5.10;;;3.37;;
27744;SDS011;61387;48.112;8.616;2023-09-18T02:38:53;6.30;;;3.10;;
27744;SDS011;61387;48.112;8.616;2023-09-18T02:41:18;5.83;;;3.00;;
27744;SDS011;61387;48.112;8.616;2023-09-18T02:43:44;7.83;;;3.10;;
27744;SDS011;61387;48.112;8.616;2023-09-18T02:46:10;6.90;;;3.53;;
27744;SDS011;61387;48.112;8.616;2023-09-18T02:48:36;10.60;;;3.80;;
27744;SDS011;61387;48.112;8.616;2023-09-18T02:51:02;5.63;;;3.20;;
27744;SDS011;61387;48.112;8.616;2023-09-18T02:53:28;6.97;;;3.33;;
27744;SDS011;61387;48.112;8.616;2023-09-18T02:55:55;5.07;;;3.17;;
27744;SDS011;61387;48.112;8.616;2023-09-18T02:58:22;5.83;;;3.40;;
27744;SDS011;61387;48.112;8.616;2023-09-18T03:00:51;5.03;;;2.80;;
27744;SDS011;61387;48.112;8.616;2023-09-18T03:03:17;4.93;;;3.07;;
27744;SDS011;61387;48.112;8.616;2023-09-18T03:05:43;5.43;;;3.03;;
27744;SDS011;61387;48.112;8.616;2023-09-18T03:08:09;6.97;;;3.20;;
27744;SDS011;61387;48.112;8.616;2023-09-18T03:10:37;5.00;;;3.20;;
27744;SDS011;61387;48.112;8.616;2023-09-18T03:13:07;6.73;;;3.60;;
27744;SDS011;61387;48.112;8.616;2023-09-18T03:15:34;8.83;;;3.93;;
27744;SDS011;61387;48.112;8.616;2023-09-18T03:18:01;6.97;;;3.50;;
27744;SDS011;61387;48.112;8.616;2023-09-18T03:20:28;7.00;;;3.73;;
27744;SDS011;61387;48.112;8.616;2023-09-18T03:22:55;7.87;;;3.80;;
27744;SDS011;61387;48.112;8.616;2023-09-18T03:25:24;6.40;;;3.60;;
27744;SDS011;61387;48.112;8.616;2023-09-18T03:27:51;7.40;;;4.00;;
27744;SDS011;61387;48.112;8.616;2023-09-18T03:30:18;5.87;;;3.67;;
27744;SDS011;61387;48.112;8.616;2023-09-18T03:32:44;8.70;;;4.13;;
27744;SDS011;61387;48.112;8.616;2023-09-18T03:35:10;10.63;;;3.67;;
27744;SDS011;61387;48.112;8.616;2023-09-18T03:37:43;17.47;;;4.67;;
27744;SDS011;61387;48.112;8.616;2023-09-18T03:40:09;16.73;;;4.17;;
27744;SDS011;61387;48.112;8.616;2023-09-18T03:42:35;11.73;;;3.63;;
27744;SDS011;61387;48.112;8.616;2023-09-18T03:45:01;12.23;;;4.03;;
27744;SDS011;61387;48.112;8.616;2023-09-18T03:47:28;15.07;;;3.87;;
27744;SDS011;61387;48.112;8.616;2023-09-18T03:49:53;12.97;;;4.10;;
27744;SDS011;61387;48.112;8.616;2023-09-18T03:52:19;11.93;;;3.30;;
27744;SDS011;61387;48.112;8.616;2023-09-18T03:54:45;13.77;;;3.57;;
27744;SDS011;61387;48.112;8.616;2023-09-18T03:57:11;11.90;;;3.10;;
27744;SDS011;61387;48.112;8.616;2023-09-18T03:59:37;11.43;;;3.37;;
27744;SDS011;61387;48.112;8.616;2023-09-18T04:02:03;9.23;;;3.33;;
27744;SDS011;61387;48.112;8.616;2023-09-18T04:04:29;9.88;;;3.20;;
27744;SDS011;61387;48.112;8.616;2023-09-18T04:06:55;9.80;;;3.45;;
27744;SDS011;61387;48.112;8.616;2023-09-18T04:09:20;14.65;;;3.92;;
27744;SDS011;61387;48.112;8.616;2023-09-18T04:11:46;11.38;;;2.90;;
27744;SDS011;61387;48.112;8.616;2023-09-18T04:14:12;8.80;;;2.93;;
27744;SDS011;61387;48.112;8.616;2023-09-18T04:16:38;12.10;;;3.40;;
27744;SDS011;61387;48.112;8.616;2023-09-18T04:19:06;7.00;;;2.87;;
27744;SDS011;61387;48.112;8.616;2023-09-18T04:21:32;9.43;;;2.85;;
27744;SDS011;61387;48.112;8.616;2023-09-18T04:23:57;11.25;;;3.50;;
27744;SDS011;61387;48.112;8.616;2023-09-18T04:26:24;13.67;;;3.23;;
27744;SDS011;61387;48.112;8.616;2023-09-18T04:28:54;8.97;;;3.20;;
27744;SDS011;61387;48.112;8.616;2023-09-18T04:31:23;8.15;;;2.53;;
27744;SDS011;61387;48.112;8.616;2023-09-18T04:33:48;8.10;;;2.95;;
27744;SDS011;61387;48.112;8.616;2023-09-18T04:36:15;8.40;;;3.17;;
27744;SDS011;61387;48.112;8.616;2023-09-18T04:38:40;10.43;;;3.27;;
27744;SDS011;61387;48.112;8.616;2023-09-18T04:41:06;14.53;;;3.67;;
27744;SDS011;61387;48.112;8.616;2023-09-18T04:43:35;10.03;;;2.90;;
27744;SDS011;61387;48.112;8.616;2023-09-18T04:46:01;10.90;;;3.40;;
27744;SDS011;61387;48.112;8.616;2023-09-18T04:48:29;8.67;;;3.53;;
27744;SDS011;61387;48.112;8.616;2023-09-18T04:50:55;11.40;;;3.60;;
27744;SDS011;61387;48.112;8.616;2023-09-18T04:53:21;10.52;;;2.83;;
27744;SDS011;61387;48.112;8.616;2023-09-18T04:55:47;13.10;;;3.10;;
27744;SDS011;61387;48.112;8.616;2023-09-18T04:58:14;11.47;;;3.27;;
27744;SDS011;61387;48.112;8.616;2023-09-18T05:00:40;13.70;;;4.03;;
27744;SDS011;61387;48.112;8.616;2023-09-18T05:03:06;13.33;;;3.80;;
27744;SDS011;61387;48.112;8.616;2023-09-18T05:05:33;14.70;;;3.35;;
27744;SDS011;61387;48.112;8.616;2023-09-18T05:08:00;10.57;;;3.40;;
27744;SDS011;61387;48.112;8.616;2023-09-18T05:10:28;10.77;;;3.80;;
27744;SDS011;61387;48.112;8.616;2023-09-18T05:12:54;13.80;;;3.73;;
27744;SDS011;61387;48.112;8.616;2023-09-18T05:15:23;10.20;;;2.80;;
27744;SDS011;61387;48.112;8.616;2023-09-18T05:17:51;9.82;;;3.22;;
27744;SDS011;61387;48.112;8.616;2023-09-18T05:20:20;8.73;;;3.40;;
27744;SDS011;61387;48.112;8.616;2023-09-18T05:22:49;10.63;;;3.20;;
27744;SDS011;61387;48.112;8.616;2023-09-18T05:25:18;10.30;;;3.75;;
27744;SDS011;61387;48.112;8.616;2023-09-18T05:27:44;10.90;;;3.37;;
27744;SDS011;61387;48.112;8.616;2023-09-18T05:30:13;10.03;;;3.47;;
27744;SDS011;61387;48.112;8.616;2023-09-18T05:32:44;8.23;;;3.27;;
27744;SDS011;61387;48.112;8.616;2023-09-18T05:35:10;7.00;;;1.97;;
27744;SDS011;61387;48.112;8.616;2023-09-18T05:37:37;7.40;;;2.60;;
27744;SDS011;61387;48.112;8.616;2023-09-18T05:40:04;6.30;;;2.70;;
27744;SDS011;61387;48.112;8.616;2023-09-18T05:42:37;10.93;;;2.60;;
27744;SDS011;61387;48.112;8.616;2023-09-18T05:45:04;18.07;;;12.70;;
27744;SDS011;61387;48.112;8.616;2023-09-18T05:47:33;7.87;;;3.17;;
27744;SDS011;61387;48.112;8.616;2023-09-18T05:50:03;11.27;;;3.67;;
27744;SDS011;61387;48.112;8.616;2023-09-18T05:52:32;4.87;;;2.23;;
27744;SDS011;61387;48.112;8.616;2023-09-18T05:54:59;7.77;;;2.20;;
27744;SDS011;61387;48.112;8.616;2023-09-18T05:57:25;7.47;;;2.22;;
27744;SDS011;61387;48.112;8.616;2023-09-18T05:59:52;7.07;;;2.30;;
27744;SDS011;61387;48.112;8.616;2023-09-18T06:02:18;5.17;;;2.20;;
27744;SDS011;61387;48.112;8.616;2023-09-18T06:04:46;7.83;;;2.17;;
27744;SDS011;61387;48.112;8.616;2023-09-18T06:07:11;6.68;;;1.80;;
27744;SDS011;61387;48.112;8.616;2023-09-18T06:09:38;6.32;;;1.98;;
27744;SDS011;61387;48.112;8.616;2023-09-18T06:12:04;9.73;;;2.00;;
27744;SDS011;61387;48.112;8.616;2023-09-18T06:14:30;8.33;;;3.00;;
27744;SDS011;61387;48.112;8.616;2023-09-18T06:16:56;13.23;;;2.20;;
27744;SDS011;61387;48.112;8.616;2023-09-18T06:19:22;9.32;;;2.20;;
27744;SDS011;61387;48.112;8.616;2023-09-18T06:21:48;7.53;;;2.50;;
27744;SDS011;61387;48.112;8.616;2023-09-18T06:24:14;5.40;;;1.98;;
27744;SDS011;61387;48.112;8.616;2023-09-18T06:26:40;10.38;;;2.90;;
27744;SDS011;61387;48.112;8.616;2023-09-18T06:29:06;8.13;;;2.28;;
27744;SDS011;61387;48.112;8.616;2023-09-18T06:31:34;7.85;;;2.10;;
27744;SDS011;61387;48.112;8.616;2023-09-18T06:34:49;6.87;;;1.97;;
27744;SDS011;61387;48.112;8.616;2023-09-18T06:37:18;9.73;;;2.03;;
27744;SDS011;61387;48.112;8.616;2023-09-18T06:39:44;9.55;;;2.45;;
27744;SDS011;61387;48.112;8.616;2023-09-18T06:42:09;9.85;;;2.60;;
27744;SDS011;61387;48.112;8.616;2023-09-18T06:44:35;8.48;;;2.45;;
27744;SDS011;61387;48.112;8.616;2023-09-18T06:47:01;7.10;;;1.90;;
27744;SDS011;61387;48.112;8.616;2023-09-18T06:49:27;8.70;;;2.27;;
27744;SDS011;61387;48.112;8.616;2023-09-18T06:51:53;6.97;;;2.33;;
27744;SDS011;61387;48.112;8.616;2023-09-18T06:54:19;7.23;;;2.30;;
27744;SDS011;61387;48.112;8.616;2023-09-18T06:56:45;7.57;;;2.00;;
27744;SDS011;61387;48.112;8.616;2023-09-18T06:59:11;6.17;;;2.30;;
27744;SDS011;61387;48.112;8.616;2023-09-18T07:01:42;7.18;;;1.92;;
27744;SDS011;61387;48.112;8.616;2023-09-18T07:04:08;7.47;;;2.10;;
27744;SDS011;61387;48.112;8.616;2023-09-18T07:06:33;7.13;;;1.90;;
27744;SDS011;61387;48.112;8.616;2023-09-18T07:08:59;5.57;;;1.67;;
27744;SDS011;61387;48.112;8.616;2023-09-18T07:11:25;9.05;;;2.03;;
27744;SDS011;61387;48.112;8.616;2023-09-18T07:13:51;9.87;;;1.83;;
27744;SDS011;61387;48.112;8.616;2023-09-18T07:16:17;3.20;;;1.65;;
27744;SDS011;61387;48.112;8.616;2023-09-18T07:18:43;5.90;;;1.77;;
27744;SDS011;61387;48.112;8.616;2023-09-18T07:21:08;7.43;;;1.87;;
27744;SDS011;61387;48.112;8.616;2023-09-18T07:23:34;8.93;;;2.00;;
27744;SDS011;61387;48.112;8.616;2023-09-18T07:26:02;13.25;;;3.55;;
27744;SDS011;61387;48.112;8.616;2023-09-18T07:28:28;13.30;;;3.00;;
27744;SDS011;61387;48.112;8.616;2023-09-18T07:30:54;8.07;;;2.30;;
27744;SDS011;61387;48.112;8.616;2023-09-18T07:33:20;7.87;;;2.20;;
27744;SDS011;61387;48.112;8.616;2023-09-18T07:35:49;6.17;;;2.00;;
27744;SDS011;61387;48.112;8.616;2023-09-18T07:38:18;7.50;;;1.57;;
27744;SDS011;61387;48.112;8.616;2023-09-18T07:40:44;6.50;;;1.57;;
27744;SDS011;61387;48.112;8.616;2023-09-18T07:43:11;4.00;;;1.43;;
27744;SDS011;61387;48.112;8.616;2023-09-18T07:45:38;3.93;;;1.70;;
27744;SDS011;61387;48.112;8.616;2023-09-18T07:48:05;4.67;;;1.53;;
27744;SDS011;61387;48.112;8.616;2023-09-18T07:50:31;5.37;;;1.70;;
27744;SDS011;61387;48.112;8.616;2023-09-18T07:52:58;7.87;;;2.27;;
27744;SDS011;61387;48.112;8.616;2023-09-18T07:55:24;5.23;;;1.90;;
27744;SDS011;61387;48.112;8.616;2023-09-18T07:57:50;2.93;;;1.43;;
27744;SDS011;61387;48.112;8.616;2023-09-18T08:00:17;4.87;;;1.50;;
27744;SDS011;61387;48.112;8.616;2023-09-18T08:02:43;4.07;;;1.50;;
27744;SDS011;61387;48.112;8.616;2023-09-18T08:05:11;4.03;;;1.20;;
27744;SDS011;61387;48.112;8.616;2023-09-18T08:07:37;14.57;;;6.97;;
27744;SDS011;61387;48.112;8.616;2023-09-18T08:10:03;4.23;;;1.53;;
27744;SDS011;61387;48.112;8.616;2023-09-18T08:12:31;5.27;;;1.40;;
27744;SDS011;61387;48.112;8.616;2023-09-18T08:14:57;4.30;;;1.43;;
27744;SDS011;61387;48.112;8.616;2023-09-18T08:17:24;2.97;;;1.43;;
27744;SDS011;61387;48.112;8.616;2023-09-18T08:19:50;4.13;;;1.67;;
27744;SDS011;61387;48.112;8.616;2023-09-18T08:22:20;3.17;;;1.30;;
27744;SDS011;61387;48.112;8.616;2023-09-18T08:24:46;4.33;;;1.33;;
27744;SDS011;61387;48.112;8.616;2023-09-18T08:27:16;6.23;;;1.80;;
27744;SDS011;61387;48.112;8.616;2023-09-18T08:29:42;4.13;;;1.80;;
27744;SDS011;61387;48.112;8.616;2023-09-18T08:32:08;6.87;;;1.70;;
27744;SDS011;61387;48.112;8.616;2023-09-18T08:34:34;4.53;;;1.63;;
27744;SDS011;61387;48.112;8.616;2023-09-18T08:37:00;4.20;;;1.90;;
27744;SDS011;61387;48.112;8.616;2023-09-18T08:39:26;22.00;;;11.90;;
27744;SDS011;61387;48.112;8.616;2023-09-18T08:41:52;5.47;;;1.80;;
27744;SDS011;61387;48.112;8.616;2023-09-18T08:44:22;4.60;;;1.47;;
27744;SDS011;61387;48.112;8.616;2023-09-18T08:46:52;5.63;;;1.67;;
27744;SDS011;61387;48.112;8.616;2023-09-18T08:49:17;5.23;;;1.63;;
27744;SDS011;61387;48.112;8.616;2023-09-18T08:51:45;3.83;;;1.97;;
27744;SDS011;61387;48.112;8.616;2023-09-18T08:54:11;4.77;;;1.90;;
27744;SDS011;61387;48.112;8.616;2023-09-18T08:56:38;6.13;;;1.90;;
27744;SDS011;61387;48.112;8.616;2023-09-18T08:59:04;4.30;;;1.60;;
27744;SDS011;61387;48.112;8.616;2023-09-18T09:01:30;5.60;;;1.83;;
27744;SDS011;61387;48.112;8.616;2023-09-18T09:03:57;4.50;;;1.40;;
27744;SDS011;61387;48.112;8.616;2023-09-18T09:06:23;2.90;;;1.13;;
27744;SDS011;61387;48.112;8.616;2023-09-18T09:08:49;2.53;;;1.40;;
27744;SDS011;61387;48.112;8.616;2023-09-18T09:11:15;6.77;;;1.50;;
27744;SDS011;61387;48.112;8.616;2023-09-18T09:13:41;4.37;;;1.90;;
27744;SDS011;61387;48.112;8.616;2023-09-18T09:16:07;5.13;;;1.70;;
27744;SDS011;61387;48.112;8.616;2023-09-18T09:18:46;5.57;;;1.23;;
27744;SDS011;61387;48.112;8.616;2023-09-18T09:21:13;2.33;;;1.00;;
27744;SDS011;61387;48.112;8.616;2023-09-18T09:23:49;5.60;;;1.80;;
27744;SDS011;61387;48.112;8.616;2023-09-18T09:26:21;4.97;;;1.80;;
27744;SDS011;61387;48.112;8.616;2023-09-18T09:28:48;6.70;;;2.27;;
27744;SDS011;61387;48.112;8.616;2023-09-18T09:31:24;5.07;;;1.80;;
27744;SDS011;61387;48.112;8.616;2023-09-18T09:33:52;4.97;;;1.90;;
27744;SDS011;61387;48.112;8.616;2023-09-18T09:36:18;6.60;;;1.90;;
27744;SDS011;61387;48.112;8.616;2023-09-18T09:38:44;3.70;;;1.50;;
27744;SDS011;61387;48.112;8.616;2023-09-18T09:41:13;3.42;;;1.40;;
27744;SDS011;61387;48.112;8.616;2023-09-18T09:43:42;3.57;;;1.30;;
27744;SDS011;61387;48.112;8.616;2023-09-18T09:48:58;5.03;;;1.60;;
27744;SDS011;61387;48.112;8.616;2023-09-18T09:51:30;5.43;;;1.73;;
27744;SDS011;61387;48.112;8.616;2023-09-18T09:53:56;5.20;;;2.00;;
27744;SDS011;61387;48.112;8.616;2023-09-18T09:56:46;2.43;;;1.30;;
27744;SDS011;61387;48.112;8.616;2023-09-18T09:59:13;4.00;;;1.80;;
27744;SDS011;61387;48.112;8.616;2023-09-18T10:01:40;4.57;;;1.77;;
27744;SDS011;61387;48.112;8.616;2023-09-18T10:04:10;8.97;;;2.40;;
27744;SDS011;61387;48.112;8.616;2023-09-18T10:06:38;6.03;;;1.93;;
27744;SDS011;61387;48.112;8.616;2023-09-18T10:09:07;2.90;;;1.50;;
27744;SDS011;61387;48.112;8.616;2023-09-18T10:11:36;3.97;;;1.50;;
27744;SDS011;61387;48.112;8.616;2023-09-18T10:14:12;3.63;;;1.73;;
27744;SDS011;61387;48.112;8.616;2023-09-18T10:16:41;4.47;;;1.87;;
27744;SDS011;61387;48.112;8.616;2023-09-18T10:21:40;3.43;;;1.50;;
27744;SDS011;61387;48.112;8.616;2023-09-18T10:26:41;3.90;;;1.53;;
27744;SDS011;61387;48.112;8.616;2023-09-18T10:29:15;3.33;;;1.53;;
27744;SDS011;61387;48.112;8.616;2023-09-18T10:31:43;2.83;;;1.27;;
27744;SDS011;61387;48.112;8.616;2023-09-18T10:34:10;5.83;;;2.10;;
27744;SDS011;61387;48.112;8.616;2023-09-18T10:36:38;4.83;;;1.37;;
27744;SDS011;61387;48.112;8.616;2023-09-18T10:39:06;4.77;;;1.63;;
27744;SDS011;61387;48.112;8.616;2023-09-18T10:41:37;3.80;;;1.30;;
27744;SDS011;61387;48.112;8.616;2023-09-18T10:44:03;4.43;;;1.57;;
27744;SDS011;61387;48.112;8.616;2023-09-18T10:46:29;2.20;;;1.40;;
27744;SDS011;61387;48.112;8.616;2023-09-18T10:48:56;2.73;;;1.30;;
27744;SDS011;61387;48.112;8.616;2023-09-18T10:51:22;2.53;;;1.60;;
27744;SDS011;61387;48.112;8.616;2023-09-18T10:53:49;3.67;;;1.80;;
27744;SDS011;61387;48.112;8.616;2023-09-18T10:56:17;3.83;;;1.70;;
27744;SDS011;61387;48.112;8.616;2023-09-18T10:58:45;3.03;;;1.47;;
27744;SDS011;61387;48.112;8.616;2023-09-18T11:01:11;3.23;;;1.50;;
27744;SDS011;61387;48.112;8.616;2023-09-18T11:03:38;3.90;;;1.73;;
27744;SDS011;61387;48.112;8.616;2023-09-18T11:11:02;5.47;;;1.97;;
27744;SDS011;61387;48.112;8.616;2023-09-18T11:13:35;3.97;;;1.70;;
27744;SDS011;61387;48.112;8.616;2023-09-18T11:21:24;3.55;;;2.10;;
27744;SDS011;61387;48.112;8.616;2023-09-18T11:24:01;5.07;;;2.27;;
27744;SDS011;61387;48.112;8.616;2023-09-18T11:26:34;3.57;;;1.87;;
27744;SDS011;61387;48.112;8.616;2023-09-18T11:29:07;7.97;;;2.30;;
27744;SDS011;61387;48.112;8.616;2023-09-18T11:31:48;5.73;;;2.40;;
27744;SDS011;61387;48.112;8.616;2023-09-18T11:36:42;4.73;;;2.43;;
27744;SDS011;61387;48.112;8.616;2023-09-18T11:39:07;5.10;;;2.27;;
27744;SDS011;61387;48.112;8.616;2023-09-18T11:41:34;5.97;;;2.13;;
27744;SDS011;61387;48.112;8.616;2023-09-18T11:46:37;3.20;;;1.83;;
27744;SDS011;61387;48.112;8.616;2023-09-18T11:49:07;4.40;;;1.63;;
27744;SDS011;61387;48.112;8.616;2023-09-18T11:51:35;3.60;;;1.70;;
27744;SDS011;61387;48.112;8.616;2023-09-18T11:54:01;3.93;;;1.40;;
27744;SDS011;61387;48.112;8.616;2023-09-18T11:56:28;4.17;;;1.40;;
27744;SDS011;61387;48.112;8.616;2023-09-18T11:58:54;3.28;;;1.33;;
27744;SDS011;61387;48.112;8.616;2023-09-18T12:01:20;3.63;;;1.63;;
27744;SDS011;61387;48.112;8.616;2023-09-18T12:03:54;3.67;;;1.55;;
27744;SDS011;61387;48.112;8.616;2023-09-18T12:06:24;6.57;;;2.40;;
27744;SDS011;61387;48.112;8.616;2023-09-18T12:08:51;3.90;;;2.50;;
27744;SDS011;61387;48.112;8.616;2023-09-18T12:11:17;3.90;;;2.00;;
27744;SDS011;61387;48.112;8.616;2023-09-18T12:13:45;4.73;;;1.70;;
27744;SDS011;61387;48.112;8.616;2023-09-18T12:16:11;4.97;;;2.00;;
27744;SDS011;61387;48.112;8.616;2023-09-18T12:18:37;2.37;;;1.15;;
27744;SDS011;61387;48.112;8.616;2023-09-18T12:21:09;2.50;;;1.00;;
27744;SDS011;61387;48.112;8.616;2023-09-18T12:23:39;1.23;;;1.10;;
27744;SDS011;61387;48.112;8.616;2023-09-18T12:26:05;2.97;;;1.50;;
27744;SDS011;61387;48.112;8.616;2023-09-18T12:28:35;3.00;;;1.90;;
27744;SDS011;61387;48.112;8.616;2023-09-18T12:31:01;4.47;;;1.48;;
27744;SDS011;61387;48.112;8.616;2023-09-18T12:33:30;4.93;;;1.30;;
27744;SDS011;61387;48.112;8.616;2023-09-18T12:36:00;4.18;;;1.75;;
27744;SDS011;61387;48.112;8.616;2023-09-18T12:38:26;5.50;;;3.42;;
27744;SDS011;61387;48.112;8.616;2023-09-18T12:40:53;2.62;;;1.00;;
27744;SDS011;61387;48.112;8.616;2023-09-18T12:43:20;3.28;;;1.50;;
27744;SDS011;61387;48.112;8.616;2023-09-18T12:45:50;3.95;;;1.30;;
27744;SDS011;61387;48.112;8.616;2023-09-18T12:48:18;3.35;;;1.65;;
27744;SDS011;61387;48.112;8.616;2023-09-18T12:50:43;6.80;;;2.07;;
27744;SDS011;61387;48.112;8.616;2023-09-18T12:53:12;3.87;;;1.40;;
27744;SDS011;61387;48.112;8.616;2023-09-18T12:55:39;1.77;;;1.20;;
27744;SDS011;61387;48.112;8.616;2023-09-18T12:58:06;4.17;;;1.63;;
27744;SDS011;61387;48.112;8.616;2023-09-18T13:00:34;5.07;;;2.03;;
27744;SDS011;61387;48.112;8.616;2023-09-18T13:03:01;3.20;;;1.23;;
27744;SDS011;61387;48.112;8.616;2023-09-18T13:05:29;3.33;;;2.23;;
27744;SDS011;61387;48.112;8.616;2023-09-18T13:08:00;2.10;;;1.33;;
27744;SDS011;61387;48.112;8.616;2023-09-18T13:10:40;3.50;;;1.70;;
27744;SDS011;61387;48.112;8.616;2023-09-18T13:13:07;5.57;;;1.58;;
27744;SDS011;61387;48.112;8.616;2023-09-18T13:15:44;2.73;;;1.43;;
27744;SDS011;61387;48.112;8.616;2023-09-18T13:18:12;3.50;;;1.48;;
27744;SDS011;61387;48.112;8.616;2023-09-18T13:20:38;2.20;;;1.27;;
27744;SDS011;61387;48.112;8.616;2023-09-18T13:23:05;4.97;;;1.85;;
27744;SDS011;61387;48.112;8.616;2023-09-18T13:25:32;2.30;;;1.10;;
27744;SDS011;61387;48.112;8.616;2023-09-18T13:27:59;2.37;;;1.12;;
27744;SDS011;61387;48.112;8.616;2023-09-18T13:30:26;2.50;;;1.30;;
27744;SDS011;61387;48.112;8.616;2023-09-18T13:33:00;3.72;;;1.50;;
27744;SDS011;61387;48.112;8.616;2023-09-18T13:35:29;2.00;;;1.20;;
27744;SDS011;61387;48.112;8.616;2023-09-18T13:37:55;4.70;;;1.37;;
27744;SDS011;61387;48.112;8.616;2023-09-18T13:40:20;2.63;;;1.33;;
27744;SDS011;61387;48.112;8.616;2023-09-18T13:42:47;3.60;;;1.23;;
27744;SDS011;61387;48.112;8.616;2023-09-18T13:45:14;3.72;;;1.58;;
27744;SDS011;61387;48.112;8.616;2023-09-18T13:47:41;2.28;;;1.17;;
27744;SDS011;61387;48.112;8.616;2023-09-18T13:50:07;3.93;;;1.47;;
27744;SDS011;61387;48.112;8.616;2023-09-18T13:52:33;4.78;;;1.77;;
27744;SDS011;61387;48.112;8.616;2023-09-18T13:55:00;4.47;;;1.35;;
27744;SDS011;61387;48.112;8.616;2023-09-18T13:57:26;2.50;;;1.10;;
27744;SDS011;61387;48.112;8.616;2023-09-18T13:59:52;3.87;;;1.60;;
27744;SDS011;61387;48.112;8.616;2023-09-18T14:02:18;2.65;;;1.00;;
27744;SDS011;61387;48.112;8.616;2023-09-18T14:04:44;2.43;;;1.13;;
27744;SDS011;61387;48.112;8.616;2023-09-18T14:07:10;3.63;;;1.50;;
27744;SDS011;61387;48.112;8.616;2023-09-18T14:09:36;3.53;;;1.15;;
27744;SDS011;61387;48.112;8.616;2023-09-18T14:12:03;2.15;;;1.00;;
27744;SDS011;61387;48.112;8.616;2023-09-18T14:14:32;2.58;;;1.20;;
27744;SDS011;61387;48.112;8.616;2023-09-18T14:16:58;2.70;;;1.37;;
27744;SDS011;61387;48.112;8.616;2023-09-18T14:19:24;2.90;;;1.30;;
27744;SDS011;61387;48.112;8.616;2023-09-18T14:21:50;2.35;;;1.25;;
27744;SDS011;61387;48.112;8.616;2023-09-18T14:24:17;2.70;;;0.93;;
27744;SDS011;61387;48.112;8.616;2023-09-18T14:26:49;2.90;;;1.50;;
27744;SDS011;61387;48.112;8.616;2023-09-18T14:29:15;3.53;;;1.17;;
27744;SDS011;61387;48.112;8.616;2023-09-18T14:31:41;4.45;;;1.62;;
27744;SDS011;61387;48.112;8.616;2023-09-18T14:34:07;3.12;;;1.25;;
27744;SDS011;61387;48.112;8.616;2023-09-18T14:36:33;2.40;;;1.20;;
27744;SDS011;61387;48.112;8.616;2023-09-18T14:38:59;3.73;;;1.27;;
27744;SDS011;61387;48.112;8.616;2023-09-18T14:41:25;2.08;;;1.17;;
27744;SDS011;61387;48.112;8.616;2023-09-18T14:43:52;4.20;;;1.83;;
27744;SDS011;61387;48.112;8.616;2023-09-18T14:46:17;3.90;;;1.53;;
27744;SDS011;61387;48.112;8.616;2023-09-18T14:48:44;3.47;;;1.50;;
27744;SDS011;61387;48.112;8.616;2023-09-18T14:51:09;3.13;;;1.80;;
27744;SDS011;61387;48.112;8.616;2023-09-18T14:53:36;3.53;;;1.60;;
27744;SDS011;61387;48.112;8.616;2023-09-18T14:56:02;2.57;;;1.67;;
27744;SDS011;61387;48.112;8.616;2023-09-18T14:58:32;3.22;;;1.60;;
27744;SDS011;61387;48.112;8.616;2023-09-18T15:00:58;3.42;;;2.30;;
27744;SDS011;61387;48.112;8.616;2023-09-18T15:03:24;4.70;;;2.90;;
27744;SDS011;61387;48.112;8.616;2023-09-18T15:05:51;4.27;;;1.67;;
27744;SDS011;61387;48.112;8.616;2023-09-18T15:08:18;3.47;;;1.63;;
27744;SDS011;61387;48.112;8.616;2023-09-18T15:10:45;4.60;;;1.65;;
27744;SDS011;61387;48.112;8.616;2023-09-18T15:13:11;5.17;;;1.57;;